createdAt,value
2023-02-25T00:02:05.978Z,376
2023-02-25T00:04:11.684Z,374
2023-02-25T00:06:17.083Z,374
2023-02-25T00:08:22.484Z,375
2023-02-25T00:10:28.259Z,374
2023-02-25T00:12:33.519Z,369
2023-02-25T00:14:39.805Z,374
2023-02-25T00:16:45.684Z,374
2023-02-25T00:18:51.392Z,375
2023-02-25T00:20:56.395Z,376
2023-02-25T00:23:02.008Z,375
2023-02-25T00:25:07.720Z,375
2023-02-25T00:27:13.395Z,375
2023-02-25T00:29:19.374Z,376
2023-02-25T00:31:25.782Z,375
2023-02-25T00:33:31.898Z,376
2023-02-25T00:35:37.137Z,376
2023-02-25T00:37:42.761Z,368
2023-02-25T00:39:48.317Z,373
2023-02-25T00:41:53.875Z,376
2023-02-25T00:43:59.494Z,374
2023-02-25T00:46:05.767Z,376
2023-02-25T00:48:11.159Z,376
2023-02-25T00:50:16.487Z,376
2023-02-25T00:52:21.664Z,376
2023-02-25T00:54:26.841Z,376
2023-02-25T00:56:32.239Z,376
2023-02-25T00:58:37.691Z,373
2023-02-25T01:00:54.036Z,374
2023-02-25T01:02:59.564Z,376
2023-02-25T01:05:05.561Z,376
2023-02-25T01:07:11.387Z,375
2023-02-25T01:09:16.956Z,376
2023-02-25T01:11:22.468Z,376
2023-02-25T01:13:27.743Z,376
2023-02-25T01:15:33.280Z,373
2023-02-25T01:17:38.670Z,373
2023-02-25T01:19:44.134Z,375
2023-02-25T01:21:49.260Z,374
2023-02-25T01:23:54.375Z,369
2023-02-25T01:25:59.739Z,374
2023-02-25T01:28:05.137Z,375
2023-02-25T01:30:10.244Z,376
2023-02-25T01:32:18.881Z,375
2023-02-25T01:34:26.847Z,369
2023-02-25T01:36:32.174Z,376
2023-02-25T01:38:37.540Z,374
2023-02-25T01:40:42.906Z,374
2023-02-25T01:42:48.109Z,372
2023-02-25T01:44:53.962Z,373
2023-02-25T01:46:59.473Z,376
2023-02-25T01:49:05.056Z,374
2023-02-25T01:51:10.331Z,373
2023-02-25T01:53:15.439Z,375
2023-02-25T01:55:21.001Z,377
2023-02-25T01:57:26.265Z,377
2023-02-25T01:59:31.477Z,377
2023-02-25T02:01:36.987Z,377
2023-02-25T02:03:42.164Z,375
2023-02-25T02:05:50.235Z,377
2023-02-25T02:07:55.477Z,377
2023-02-25T02:10:00.874Z,376
2023-02-25T02:12:06.159Z,376
2023-02-25T02:14:11.602Z,375
2023-02-25T02:16:17.224Z,373
2023-02-25T02:18:22.852Z,373
2023-02-25T02:20:28.365Z,374
2023-02-25T02:22:33.500Z,374
2023-02-25T02:24:38.897Z,375
2023-02-25T02:26:44.589Z,369
2023-02-25T02:28:49.841Z,376
2023-02-25T02:30:55.787Z,368
2023-02-25T02:33:01.498Z,369
2023-02-25T02:35:07.069Z,373
2023-02-25T02:37:12.144Z,377
2023-02-25T02:39:17.193Z,373
2023-02-25T02:41:22.914Z,373
2023-02-25T02:43:28.324Z,376
2023-02-25T02:45:33.886Z,369
2023-02-25T02:47:39.141Z,369
2023-02-25T02:49:44.620Z,374
2023-02-25T02:51:49.922Z,376
2023-02-25T02:53:55.492Z,373
2023-02-25T02:56:00.992Z,368
2023-02-25T02:58:06.354Z,377
2023-02-25T03:00:11.888Z,376
2023-02-25T03:02:17.396Z,376
2023-02-25T03:04:22.694Z,376
2023-02-25T03:06:28.492Z,377
2023-02-25T03:08:33.742Z,376
2023-02-25T03:10:39.108Z,373
2023-02-25T03:12:44.548Z,376
2023-02-25T03:14:49.980Z,375
2023-02-25T03:16:55.680Z,373
2023-02-25T03:19:01.124Z,376
2023-02-25T03:21:06.650Z,376
2023-02-25T03:23:12.073Z,375
2023-02-25T03:25:17.312Z,376
2023-02-25T03:27:22.613Z,376
2023-02-25T03:29:27.820Z,376
2023-02-25T03:31:33.353Z,376
2023-02-25T03:33:38.540Z,376
2023-02-25T03:35:44.763Z,377
2023-02-25T03:37:50.207Z,376
2023-02-25T03:39:55.366Z,374
2023-02-25T03:42:00.562Z,375
2023-02-25T03:44:05.659Z,375
2023-02-25T03:46:11.296Z,376
2023-02-25T03:48:16.810Z,374
2023-02-25T03:50:22.402Z,373
2023-02-25T03:52:27.678Z,373
2023-02-25T03:54:33.114Z,377
2023-02-25T03:56:38.928Z,376
2023-02-25T03:58:44.238Z,376
2023-02-25T04:00:49.685Z,357
2023-02-25T04:02:55.261Z,375
2023-02-25T04:05:00.819Z,367
2023-02-25T04:07:06.458Z,375
2023-02-25T04:09:12.136Z,368
2023-02-25T04:11:17.302Z,375
2023-02-25T04:13:22.650Z,377
2023-02-25T04:15:27.863Z,374
2023-02-25T04:17:33.343Z,364
2023-02-25T04:19:38.814Z,367
2023-02-25T04:21:44.089Z,367
2023-02-25T04:23:49.188Z,373
2023-02-25T04:25:54.394Z,369
2023-02-25T04:27:59.774Z,375
2023-02-25T04:30:05.185Z,372
2023-02-25T04:32:11.257Z,376
2023-02-25T04:34:16.626Z,368
2023-02-25T04:36:22.478Z,375
2023-02-25T04:38:28.385Z,369
2023-02-25T04:40:33.752Z,373
2023-02-25T04:42:39.044Z,369
2023-02-25T04:44:44.391Z,368
2023-02-25T04:46:50.110Z,366
2023-02-25T04:48:55.792Z,369
2023-02-25T04:51:00.979Z,375
2023-02-25T04:53:06.015Z,373
2023-02-25T04:55:11.396Z,367
2023-02-25T04:57:16.556Z,368
2023-02-25T04:59:21.897Z,367
2023-02-25T05:01:27.268Z,364
2023-02-25T05:03:32.707Z,372
2023-02-25T05:05:37.759Z,369
2023-02-25T05:07:43.018Z,370
2023-02-25T05:09:48.341Z,373
2023-02-25T05:11:53.844Z,374
2023-02-25T05:13:59.135Z,376
2023-02-25T05:16:04.599Z,367
2023-02-25T05:18:10.333Z,367
2023-02-25T05:20:16.297Z,365
2023-02-25T05:22:21.827Z,367
2023-02-25T05:24:27.059Z,373
2023-02-25T05:26:32.494Z,376
2023-02-25T05:28:37.648Z,364
2023-02-25T05:30:43.015Z,363
2023-02-25T05:32:49.196Z,367
2023-02-25T05:34:54.839Z,364
2023-02-25T05:37:00.120Z,372
2023-02-25T05:39:05.527Z,367
2023-02-25T05:41:11.033Z,369
2023-02-25T05:43:16.245Z,362
2023-02-25T05:45:21.519Z,367
2023-02-25T05:47:27.154Z,373
2023-02-25T05:49:33.124Z,364
2023-02-25T05:51:38.486Z,367
2023-02-25T05:53:43.816Z,364
2023-02-25T05:55:49.019Z,367
2023-02-25T05:57:54.753Z,369
2023-02-25T06:00:03.086Z,368
2023-02-25T06:02:08.770Z,376
2023-02-25T06:04:14.684Z,375
2023-02-25T06:06:25.089Z,374
2023-02-25T06:08:30.923Z,368
2023-02-25T06:10:36.890Z,369
2023-02-25T06:12:42.324Z,368
2023-02-25T06:14:51.008Z,365
2023-02-25T06:16:59.738Z,369
2023-02-25T06:19:05.706Z,365
2023-02-25T06:21:11.066Z,373
2023-02-25T06:23:16.512Z,375
2023-02-25T06:25:21.893Z,375
2023-02-25T06:27:27.728Z,364
2023-02-25T06:29:33.308Z,357
2023-02-25T06:31:39.456Z,357
2023-02-25T06:33:45.024Z,364
2023-02-25T06:35:50.559Z,363
2023-02-25T06:37:56.202Z,374
2023-02-25T06:40:01.508Z,366
2023-02-25T06:42:07.010Z,360
2023-02-25T06:44:13.764Z,369
2023-02-25T06:46:20.713Z,367
2023-02-25T06:48:27.436Z,367
2023-02-25T06:50:32.984Z,368
2023-02-25T06:52:38.374Z,366
2023-02-25T06:54:43.764Z,368
2023-02-25T06:56:49.281Z,366
2023-02-25T06:58:57.625Z,375
2023-02-25T07:01:02.969Z,368
2023-02-25T07:03:08.880Z,369
2023-02-25T07:05:14.762Z,372
2023-02-25T07:07:20.856Z,368
2023-02-25T07:09:27.611Z,375
2023-02-25T07:11:33.800Z,375
2023-02-25T07:13:39.508Z,368
2023-02-25T07:15:45.293Z,369
2023-02-25T07:17:51.509Z,368
2023-02-25T07:19:57.960Z,367
2023-02-25T07:22:04.196Z,364
2023-02-25T07:24:10.217Z,368
2023-02-25T07:26:16.172Z,369
2023-02-25T07:28:22.240Z,366
2023-02-25T07:30:28.486Z,375
2023-02-25T07:32:35.130Z,367
2023-02-25T07:34:40.905Z,368
2023-02-25T07:36:47.100Z,369
2023-02-25T07:38:53.411Z,369
2023-02-25T07:40:59.799Z,372
2023-02-25T07:43:06.733Z,362
2023-02-25T07:45:12.913Z,373
2023-02-25T07:47:18.957Z,366
2023-02-25T07:49:25.528Z,369
2023-02-25T07:51:32.337Z,355
2023-02-25T07:53:38.637Z,366
2023-02-25T07:55:45.202Z,363
2023-02-25T07:57:51.718Z,364
2023-02-25T07:59:58.324Z,367
2023-02-25T08:02:04.613Z,374
2023-02-25T08:04:11.137Z,367
2023-02-25T08:06:17.808Z,366
2023-02-25T08:08:24.322Z,367
2023-02-25T08:10:31.759Z,367
2023-02-25T08:12:37.870Z,368
2023-02-25T08:14:43.814Z,367
2023-02-25T08:16:49.928Z,375
2023-02-25T08:18:56.680Z,366
2023-02-25T08:21:05.600Z,367
2023-02-25T08:23:13.658Z,369
2023-02-25T08:25:20.289Z,365
2023-02-25T08:27:26.764Z,366
2023-02-25T08:29:33.277Z,369
2023-02-25T08:31:40.683Z,369
2023-02-25T08:33:47.741Z,369
2023-02-25T08:35:54.553Z,375
2023-02-25T08:38:00.886Z,369
2023-02-25T08:40:07.062Z,375
2023-02-25T08:42:13.500Z,367
2023-02-25T08:44:19.927Z,367
2023-02-25T08:46:26.648Z,373
2023-02-25T08:48:34.382Z,368
2023-02-25T08:50:40.464Z,367
2023-02-25T08:52:46.755Z,368
2023-02-25T08:54:53.118Z,374
2023-02-25T08:56:59.229Z,365
2023-02-25T08:59:05.564Z,356
2023-02-25T09:01:12.165Z,356
2023-02-25T09:03:18.442Z,374
2023-02-25T09:05:24.604Z,367
2023-02-25T09:07:30.842Z,373
2023-02-25T09:09:37.996Z,365
2023-02-25T09:11:43.926Z,348
2023-02-25T09:13:50.031Z,363
2023-02-25T09:15:56.627Z,357
2023-02-25T09:18:02.278Z,369
2023-02-25T09:20:08.358Z,361
2023-02-25T09:22:16.256Z,355
2023-02-25T09:24:22.863Z,357
2023-02-25T09:26:31.623Z,362
2023-02-25T09:28:38.103Z,362
2023-02-25T09:30:44.485Z,364
2023-02-25T09:32:51.538Z,363
2023-02-25T09:35:00.130Z,366
2023-02-25T09:37:10.734Z,373
2023-02-25T09:39:16.788Z,365
2023-02-25T09:41:23.849Z,365
2023-02-25T09:43:30.666Z,364
2023-02-25T09:45:36.985Z,366
2023-02-25T09:47:43.693Z,363
2023-02-25T09:49:50.024Z,364
2023-02-25T09:51:56.788Z,364
2023-02-25T09:54:02.798Z,368
2023-02-25T09:56:09.665Z,374
2023-02-25T09:58:16.146Z,367
2023-02-25T10:00:21.975Z,375
2023-02-25T10:02:29.185Z,367
2023-02-25T10:04:35.710Z,365
2023-02-25T10:06:45.474Z,363
2023-02-25T10:08:51.919Z,365
2023-02-25T10:10:59.465Z,361
2023-02-25T10:13:05.829Z,375
2023-02-25T10:15:12.281Z,366
2023-02-25T10:17:18.606Z,365
2023-02-25T10:19:24.901Z,364
2023-02-25T10:21:32.285Z,367
2023-02-25T10:23:39.618Z,370
2023-02-25T10:25:45.912Z,367
2023-02-25T10:27:52.127Z,367
2023-02-25T10:30:00.166Z,367
2023-02-25T10:32:08.537Z,367
2023-02-25T10:34:15.385Z,362
2023-02-25T10:36:21.844Z,375
2023-02-25T10:38:28.174Z,365
2023-02-25T10:40:34.340Z,375
2023-02-25T10:42:43.698Z,374
2023-02-25T10:44:50.260Z,374
2023-02-25T10:46:56.299Z,360
2023-02-25T10:49:02.899Z,375
2023-02-25T10:51:09.556Z,374
2023-02-25T10:53:15.718Z,375
2023-02-25T10:55:21.910Z,375
2023-02-25T10:57:28.054Z,374
2023-02-25T10:59:35.393Z,375
2023-02-25T11:01:41.903Z,367
2023-02-25T11:03:48.329Z,367
2023-02-25T11:05:54.760Z,366
2023-02-25T11:08:01.158Z,374
2023-02-25T11:10:08.036Z,366
2023-02-25T11:12:14.593Z,366
2023-02-25T11:14:21.121Z,368
2023-02-25T11:16:28.102Z,375
2023-02-25T11:18:35.504Z,367
2023-02-25T11:20:42.054Z,375
2023-02-25T11:22:48.314Z,367
2023-02-25T11:24:55.718Z,366
2023-02-25T11:27:02.206Z,368
2023-02-25T11:29:09.582Z,364
2023-02-25T11:31:16.585Z,363
2023-02-25T11:33:24.867Z,364
2023-02-25T11:35:31.398Z,366
2023-02-25T11:37:39.162Z,364
2023-02-25T11:39:50.845Z,367
2023-02-25T11:41:57.397Z,366
2023-02-25T11:44:06.396Z,366
2023-02-25T11:46:13.164Z,366
2023-02-25T11:48:20.322Z,366
2023-02-25T11:50:26.904Z,358
2023-02-25T11:52:34.751Z,365
2023-02-25T11:54:41.005Z,360
2023-02-25T11:56:47.372Z,357
2023-02-25T11:58:53.774Z,362
2023-02-25T12:01:00.840Z,361
2023-02-25T12:03:08.769Z,374
2023-02-25T12:05:16.213Z,363
2023-02-25T12:07:22.682Z,358
2023-02-25T12:09:29.186Z,362
2023-02-25T12:11:35.560Z,363
2023-02-25T12:13:42.685Z,367
2023-02-25T12:15:49.224Z,364
2023-02-25T12:17:57.632Z,364
2023-02-25T12:20:04.894Z,365
2023-02-25T12:22:11.617Z,374
2023-02-25T12:24:18.409Z,373
2023-02-25T12:26:25.430Z,366
2023-02-25T12:28:32.413Z,369
2023-02-25T12:30:39.934Z,360
2023-02-25T12:32:46.224Z,369
2023-02-25T12:34:53.363Z,364
2023-02-25T12:37:01.118Z,366
2023-02-25T12:39:08.527Z,362
2023-02-25T12:41:15.395Z,350
2023-02-25T12:43:22.104Z,356
2023-02-25T12:45:29.530Z,360
2023-02-25T12:47:36.245Z,361
2023-02-25T12:49:42.990Z,361
2023-02-25T12:51:49.648Z,361
2023-02-25T12:53:55.927Z,361
2023-02-25T12:56:02.448Z,360
2023-02-25T12:58:08.638Z,360
2023-02-25T13:00:14.763Z,360
2023-02-25T13:02:21.011Z,360
2023-02-25T13:04:27.702Z,360
2023-02-25T13:06:33.836Z,360
2023-02-25T13:08:40.229Z,360
2023-02-25T13:10:47.135Z,360
2023-02-25T13:12:54.349Z,360
2023-02-25T13:15:00.766Z,360
2023-02-25T13:17:07.330Z,360
2023-02-25T13:19:13.748Z,360
2023-02-25T13:21:20.468Z,360
2023-02-25T13:23:26.587Z,360
2023-02-25T13:25:33.880Z,360
2023-02-25T13:27:40.761Z,360
2023-02-25T13:29:50.341Z,360
2023-02-25T13:31:59.057Z,360
2023-02-25T13:34:07.237Z,360
2023-02-25T13:36:14.034Z,360
2023-02-25T13:38:20.558Z,360
2023-02-25T13:40:31.643Z,360
2023-02-25T13:42:38.986Z,360
2023-02-25T13:44:45.968Z,360
2023-02-25T13:46:52.652Z,360
2023-02-25T13:48:58.888Z,360
2023-02-25T13:51:07.160Z,360
2023-02-25T13:53:13.476Z,360
2023-02-25T13:55:20.958Z,360
2023-02-25T13:57:27.084Z,360
2023-02-25T13:59:34.659Z,360
2023-02-25T14:01:42.175Z,360
2023-02-25T14:03:49.080Z,360
2023-02-25T14:05:54.773Z,360
2023-02-25T14:08:00.912Z,360
2023-02-25T14:10:07.440Z,360
2023-02-25T14:12:16.896Z,360
2023-02-25T14:14:25.166Z,360
2023-02-25T14:16:33.664Z,360
2023-02-25T14:18:41.585Z,360
2023-02-25T14:20:49.672Z,360
2023-02-25T14:23:00.551Z,360
2023-02-25T14:25:07.575Z,360
2023-02-25T14:27:14.032Z,360
2023-02-25T14:29:20.932Z,360
2023-02-25T14:31:32.338Z,358
2023-02-25T14:33:40.997Z,360
2023-02-25T14:35:50.064Z,358
2023-02-25T14:37:57.736Z,358
2023-02-25T14:40:05.803Z,360
2023-02-25T14:42:13.957Z,358
2023-02-25T14:44:21.755Z,358
2023-02-25T14:46:30.388Z,357
2023-02-25T14:48:38.968Z,357
2023-02-25T14:50:46.856Z,358
2023-02-25T14:52:53.164Z,358
2023-02-25T14:55:02.408Z,358
2023-02-25T14:57:14.066Z,358
2023-02-25T14:59:22.902Z,360
2023-02-25T15:01:31.993Z,358
2023-02-25T15:03:43.429Z,358
2023-02-25T15:05:50.830Z,358
2023-02-25T15:07:58.024Z,357
2023-02-25T15:10:04.667Z,358
2023-02-25T15:12:12.262Z,358
2023-02-25T15:14:19.538Z,358
2023-02-25T15:16:26.017Z,358
2023-02-25T15:18:33.907Z,357
2023-02-25T15:20:42.882Z,357
2023-02-25T15:22:51.642Z,358
2023-02-25T15:24:58.108Z,357
2023-02-25T15:27:08.409Z,357
2023-02-25T15:29:16.087Z,357
2023-02-25T15:31:25.574Z,357
2023-02-25T15:33:34.029Z,358
2023-02-25T15:35:41.626Z,357
2023-02-25T15:37:49.314Z,357
2023-02-25T15:39:59.690Z,357
2023-02-25T15:42:08.498Z,358
2023-02-25T15:44:16.836Z,357
2023-02-25T15:46:25.889Z,357
2023-02-25T15:48:34.762Z,356
2023-02-25T15:50:43.663Z,357
2023-02-25T15:52:56.044Z,357
2023-02-25T15:55:03.959Z,357
2023-02-25T15:57:13.112Z,357
2023-02-25T15:59:21.411Z,357
2023-02-25T16:01:30.140Z,357
2023-02-25T16:03:40.362Z,357
2023-02-25T16:05:54.335Z,357
2023-02-25T16:08:01.636Z,357
2023-02-25T16:10:10.593Z,357
2023-02-25T16:12:20.515Z,357
2023-02-25T16:14:28.585Z,357
2023-02-25T16:16:38.023Z,357
2023-02-25T16:18:49.542Z,357
2023-02-25T16:21:00.133Z,357
2023-02-25T16:23:10.788Z,357
2023-02-25T16:25:18.815Z,357
2023-02-25T16:27:26.792Z,357
2023-02-25T16:29:35.220Z,357
2023-02-25T16:31:43.270Z,357
2023-02-25T16:33:52.976Z,357
2023-02-25T16:36:11.684Z,357
2023-02-25T16:38:20.709Z,357
2023-02-25T16:40:29.094Z,357
2023-02-25T16:42:36.811Z,357
2023-02-25T16:44:50.273Z,357
2023-02-25T16:47:02.682Z,357
2023-02-25T16:49:12.705Z,357
2023-02-25T16:51:22.548Z,357
2023-02-25T16:53:35.010Z,357
2023-02-25T16:55:44.581Z,357
2023-02-25T16:57:59.543Z,357
2023-02-25T17:00:06.872Z,357
2023-02-25T17:02:21.090Z,357
2023-02-25T17:04:28.463Z,357
2023-02-25T17:06:35.775Z,357
2023-02-25T17:08:45.125Z,357
2023-02-25T17:10:53.125Z,357
2023-02-25T17:13:01.470Z,357
2023-02-25T17:15:16.161Z,357
2023-02-25T17:17:25.203Z,374
2023-02-25T17:19:35.232Z,374
2023-02-25T17:21:48.305Z,374
2023-02-25T17:24:00.198Z,374
2023-02-25T17:26:08.810Z,374
2023-02-25T17:28:22.015Z,373
2023-02-25T17:30:31.520Z,373
2023-02-25T17:32:39.994Z,370
2023-02-25T17:34:52.229Z,369
2023-02-25T17:37:02.250Z,364
2023-02-25T17:39:12.176Z,368
2023-02-25T17:41:22.641Z,368
2023-02-25T17:43:38.300Z,369
2023-02-25T17:45:48.112Z,373
2023-02-25T17:47:57.932Z,373
2023-02-25T17:50:08.230Z,372
2023-02-25T17:52:15.272Z,369
2023-02-25T17:54:29.790Z,372
2023-02-25T17:56:39.365Z,373
2023-02-25T17:58:51.141Z,372
2023-02-25T18:00:59.964Z,372
2023-02-25T18:03:08.437Z,373
2023-02-25T18:05:19.785Z,372
2023-02-25T18:07:30.704Z,366
2023-02-25T18:09:38.726Z,373
2023-02-25T18:11:54.195Z,369
2023-02-25T18:14:03.374Z,369
2023-02-25T18:16:17.137Z,369
2023-02-25T18:18:28.020Z,372
2023-02-25T18:20:37.034Z,369
2023-02-25T18:22:46.822Z,369
2023-02-25T18:24:57.108Z,369
2023-02-25T18:27:06.159Z,369
2023-02-25T18:29:13.260Z,365
2023-02-25T18:31:23.344Z,369
2023-02-25T18:33:32.764Z,363
2023-02-25T18:35:43.227Z,357
2023-02-25T18:37:55.184Z,356
2023-02-25T18:40:04.267Z,357
2023-02-25T18:42:15.540Z,355
2023-02-25T18:44:27.999Z,356
2023-02-25T18:46:38.422Z,367
2023-02-25T18:48:45.540Z,356
2023-02-25T18:50:55.690Z,363
2023-02-25T18:53:04.974Z,357
2023-02-25T18:55:18.120Z,357
2023-02-25T18:57:28.111Z,358
2023-02-25T18:59:36.866Z,360
2023-02-25T19:01:47.261Z,356
2023-02-25T19:03:57.737Z,358
2023-02-25T19:06:06.843Z,362
2023-02-25T19:08:16.385Z,360
2023-02-25T19:10:26.273Z,366
2023-02-25T19:12:35.399Z,361
2023-02-25T19:14:48.113Z,368
2023-02-25T19:17:07.630Z,367
2023-02-25T19:19:18.111Z,357
2023-02-25T19:21:29.201Z,363
2023-02-25T19:23:39.190Z,369
2023-02-25T19:25:50.167Z,363
2023-02-25T19:28:03.981Z,366
2023-02-25T19:30:13.296Z,362
2023-02-25T19:32:22.622Z,363
2023-02-25T19:34:32.121Z,355
2023-02-25T19:36:42.110Z,356
2023-02-25T19:39:05.390Z,361
2023-02-25T19:41:15.607Z,367
2023-02-25T19:43:25.077Z,356
2023-02-25T19:45:40.724Z,368
2023-02-25T19:47:50.849Z,367
2023-02-25T19:50:01.550Z,368
2023-02-25T19:52:10.658Z,356
2023-02-25T19:54:20.166Z,363
2023-02-25T19:56:31.777Z,362
2023-02-25T19:58:41.369Z,365
2023-02-25T20:00:51.266Z,368
2023-02-25T20:03:02.159Z,365
2023-02-25T20:05:12.019Z,364
2023-02-25T20:07:26.898Z,367
2023-02-25T20:09:34.365Z,368
2023-02-25T20:11:43.292Z,360
2023-02-25T20:13:53.975Z,360
2023-02-25T20:16:06.536Z,363
2023-02-25T20:18:15.629Z,367
2023-02-25T20:20:23.375Z,363
2023-02-25T20:22:33.093Z,365
2023-02-25T20:24:41.210Z,367
2023-02-25T20:26:52.768Z,362
2023-02-25T20:29:01.604Z,364
2023-02-25T20:31:13.742Z,365
2023-02-25T20:33:22.619Z,365
2023-02-25T20:35:34.655Z,369
2023-02-25T20:37:45.340Z,355
2023-02-25T20:39:56.260Z,356
2023-02-25T20:42:10.394Z,357
2023-02-25T20:44:21.535Z,357
2023-02-25T20:46:29.740Z,363
2023-02-25T20:48:40.140Z,367
2023-02-25T20:50:52.969Z,368
2023-02-25T20:53:05.153Z,368
2023-02-25T20:55:16.628Z,362
2023-02-25T20:57:26.492Z,366
2023-02-25T20:59:36.234Z,362
2023-02-25T21:01:45.676Z,365
2023-02-25T21:04:01.651Z,368
2023-02-25T21:06:11.546Z,363
2023-02-25T21:08:20.466Z,360
2023-02-25T21:10:30.945Z,361
2023-02-25T21:12:42.831Z,367
2023-02-25T21:14:51.052Z,366
2023-02-25T21:16:58.694Z,365
2023-02-25T21:19:07.524Z,364
2023-02-25T21:21:16.869Z,365
2023-02-25T21:23:26.780Z,365
2023-02-25T21:25:35.519Z,366
2023-02-25T21:27:44.706Z,364
2023-02-25T21:29:52.491Z,367
2023-02-25T21:32:00.115Z,366
2023-02-25T21:34:08.509Z,364
2023-02-25T21:36:15.108Z,364
2023-02-25T21:38:22.597Z,365
2023-02-25T21:40:30.657Z,365
2023-02-25T21:42:38.487Z,366
2023-02-25T21:44:45.425Z,363
2023-02-25T21:46:53.028Z,367
2023-02-25T21:49:02.041Z,366
2023-02-25T21:51:09.228Z,364
2023-02-25T21:53:17.175Z,368
2023-02-25T21:55:24.009Z,357
2023-02-25T21:57:31.266Z,358
2023-02-25T21:59:39.224Z,363
2023-02-25T22:01:46.532Z,364
2023-02-25T22:03:54.379Z,363
2023-02-25T22:06:01.157Z,363
2023-02-25T22:08:07.971Z,363
2023-02-25T22:10:16.238Z,357
2023-02-25T22:12:24.009Z,349
2023-02-25T22:14:30.832Z,353
2023-02-25T22:16:37.469Z,363
2023-02-25T22:18:44.802Z,368
2023-02-25T22:20:51.818Z,360
2023-02-25T22:22:58.228Z,363
2023-02-25T22:25:05.723Z,367
2023-02-25T22:27:14.163Z,363
2023-02-25T22:29:20.383Z,369
2023-02-25T22:31:27.011Z,363
2023-02-25T22:33:33.942Z,369
2023-02-25T22:35:40.473Z,365
2023-02-25T22:37:46.188Z,366
2023-02-25T22:39:52.093Z,364
2023-02-25T22:41:57.542Z,367
2023-02-25T22:44:03.099Z,363
2023-02-25T22:46:09.202Z,360
2023-02-25T22:48:15.973Z,364
2023-02-25T22:50:21.585Z,365
2023-02-25T22:52:27.386Z,368
2023-02-25T22:54:33.659Z,366
2023-02-25T22:56:40.435Z,366
2023-02-25T22:58:46.598Z,366
2023-02-25T23:00:52.172Z,367
2023-02-25T23:02:58.441Z,367
2023-02-25T23:05:04.891Z,362
2023-02-25T23:07:10.435Z,363
2023-02-25T23:09:16.050Z,363
2023-02-25T23:11:21.624Z,365
2023-02-25T23:13:29.961Z,366
2023-02-25T23:15:35.733Z,365
2023-02-25T23:17:41.265Z,364
2023-02-25T23:19:46.639Z,365
2023-02-25T23:21:52.192Z,364
2023-02-25T23:23:58.603Z,366
2023-02-25T23:26:05.149Z,365
2023-02-25T23:28:10.983Z,363
2023-02-25T23:30:16.510Z,364
2023-02-25T23:32:22.227Z,360
2023-02-25T23:34:27.891Z,364
2023-02-25T23:36:33.344Z,365
2023-02-25T23:38:38.863Z,364
2023-02-25T23:40:44.586Z,364
2023-02-25T23:42:50.142Z,364
2023-02-25T23:44:55.323Z,365
2023-02-25T23:47:01.740Z,364
2023-02-25T23:49:07.635Z,363
2023-02-25T23:51:15.479Z,364
2023-02-25T23:53:21.034Z,366
2023-02-25T23:55:26.616Z,365
2023-02-25T23:57:31.936Z,366
2023-02-25T23:59:37.373Z,365
